sensor_id;sensor_type;location;lat;lon;timestamp;P1;durP1;ratioP1;P2;durP2;ratioP2
20283;SDS011;10301;50.832;4.080;2022-11-27T00:01:08;18.53;;;7.07;;
20283;SDS011;10301;50.832;4.080;2022-11-27T00:03:38;18.47;;;6.70;;
20283;SDS011;10301;50.832;4.080;2022-11-27T00:06:04;17.77;;;6.47;;
20283;SDS011;10301;50.832;4.080;2022-11-27T00:08:30;19.70;;;6.43;;
20283;SDS011;10301;50.832;4.080;2022-11-27T00:10:56;19.83;;;6.53;;
20283;SDS011;10301;50.832;4.080;2022-11-27T00:13:22;16.97;;;6.17;;
20283;SDS011;10301;50.832;4.080;2022-11-27T00:15:47;15.87;;;6.03;;
20283;SDS011;10301;50.832;4.080;2022-11-27T00:18:13;17.03;;;6.40;;
20283;SDS011;10301;50.832;4.080;2022-11-27T00:20:39;17.97;;;6.63;;
20283;SDS011;10301;50.832;4.080;2022-11-27T00:23:04;16.07;;;5.73;;
20283;SDS011;10301;50.832;4.080;2022-11-27T00:25:30;15.20;;;5.23;;
20283;SDS011;10301;50.832;4.080;2022-11-27T00:27:57;18.77;;;5.90;;
20283;SDS011;10301;50.832;4.080;2022-11-27T00:30:23;20.17;;;5.83;;
20283;SDS011;10301;50.832;4.080;2022-11-27T00:32:48;12.70;;;5.23;;
20283;SDS011;10301;50.832;4.080;2022-11-27T00:35:14;13.27;;;5.03;;
20283;SDS011;10301;50.832;4.080;2022-11-27T00:37:40;15.67;;;4.53;;
20283;SDS011;10301;50.832;4.080;2022-11-27T00:40:05;14.43;;;5.70;;
20283;SDS011;10301;50.832;4.080;2022-11-27T00:42:31;16.97;;;5.33;;
20283;SDS011;10301;50.832;4.080;2022-11-27T00:44:57;17.93;;;5.10;;
20283;SDS011;10301;50.832;4.080;2022-11-27T00:47:22;13.60;;;4.50;;
20283;SDS011;10301;50.832;4.080;2022-11-27T00:49:48;19.10;;;4.77;;
20283;SDS011;10301;50.832;4.080;2022-11-27T00:52:14;19.47;;;6.17;;
20283;SDS011;10301;50.832;4.080;2022-11-27T00:54:39;19.13;;;4.87;;
20283;SDS011;10301;50.832;4.080;2022-11-27T00:57:05;16.77;;;4.73;;
20283;SDS011;10301;50.832;4.080;2022-11-27T00:59:31;14.17;;;4.70;;
20283;SDS011;10301;50.832;4.080;2022-11-27T01:01:56;13.60;;;4.33;;
20283;SDS011;10301;50.832;4.080;2022-11-27T01:04:22;14.57;;;4.30;;
20283;SDS011;10301;50.832;4.080;2022-11-27T01:06:47;14.00;;;4.20;;
20283;SDS011;10301;50.832;4.080;2022-11-27T01:09:13;16.67;;;4.10;;
20283;SDS011;10301;50.832;4.080;2022-11-27T01:11:40;13.67;;;4.00;;
20283;SDS011;10301;50.832;4.080;2022-11-27T01:14:08;13.43;;;4.13;;
20283;SDS011;10301;50.832;4.080;2022-11-27T01:16:36;12.40;;;3.63;;
20283;SDS011;10301;50.832;4.080;2022-11-27T01:19:02;12.53;;;3.83;;
20283;SDS011;10301;50.832;4.080;2022-11-27T01:21:29;13.83;;;3.90;;
20283;SDS011;10301;50.832;4.080;2022-11-27T01:23:56;15.13;;;3.80;;
20283;SDS011;10301;50.832;4.080;2022-11-27T01:26:22;16.67;;;3.70;;
20283;SDS011;10301;50.832;4.080;2022-11-27T01:28:52;13.27;;;3.70;;
20283;SDS011;10301;50.832;4.080;2022-11-27T01:31:22;10.47;;;2.97;;
20283;SDS011;10301;50.832;4.080;2022-11-27T01:33:57;14.10;;;3.90;;
20283;SDS011;10301;50.832;4.080;2022-11-27T01:36:24;15.83;;;3.23;;
20283;SDS011;10301;50.832;4.080;2022-11-27T01:38:50;14.37;;;3.30;;
20283;SDS011;10301;50.832;4.080;2022-11-27T01:41:17;14.03;;;3.43;;
20283;SDS011;10301;50.832;4.080;2022-11-27T01:43:51;14.40;;;3.20;;
20283;SDS011;10301;50.832;4.080;2022-11-27T01:52:03;12.13;;;2.83;;
20283;SDS011;10301;50.832;4.080;2022-11-27T01:54:47;9.73;;;2.67;;
20283;SDS011;10301;50.832;4.080;2022-11-27T01:57:30;17.20;;;2.90;;
20283;SDS011;10301;50.832;4.080;2022-11-27T02:00:03;9.63;;;2.60;;
20283;SDS011;10301;50.832;4.080;2022-11-27T02:02:30;12.13;;;2.80;;
20283;SDS011;10301;50.832;4.080;2022-11-27T02:04:56;11.37;;;2.47;;
20283;SDS011;10301;50.832;4.080;2022-11-27T02:07:22;8.07;;;2.87;;
20283;SDS011;10301;50.832;4.080;2022-11-27T02:09:48;9.70;;;3.03;;
20283;SDS011;10301;50.832;4.080;2022-11-27T02:14:51;17.03;;;2.80;;
20283;SDS011;10301;50.832;4.080;2022-11-27T02:37:34;14.67;;;3.10;;
20283;SDS011;10301;50.832;4.080;2022-11-27T02:40:11;9.73;;;2.80;;
20283;SDS011;10301;50.832;4.080;2022-11-27T02:42:39;10.47;;;2.70;;
20283;SDS011;10301;50.832;4.080;2022-11-27T02:45:15;8.30;;;2.63;;
20283;SDS011;10301;50.832;4.080;2022-11-27T02:48:03;8.33;;;2.90;;
20283;SDS011;10301;50.832;4.080;2022-11-27T02:50:30;12.43;;;2.97;;
20283;SDS011;10301;50.832;4.080;2022-11-27T02:53:00;10.93;;;2.87;;
20283;SDS011;10301;50.832;4.080;2022-11-27T02:55:29;11.60;;;3.03;;
20283;SDS011;10301;50.832;4.080;2022-11-27T02:57:57;11.83;;;2.80;;
20283;SDS011;10301;50.832;4.080;2022-11-27T03:00:26;9.37;;;2.57;;
20283;SDS011;10301;50.832;4.080;2022-11-27T03:02:55;9.57;;;2.43;;
20283;SDS011;10301;50.832;4.080;2022-11-27T03:05:25;9.17;;;2.83;;
20283;SDS011;10301;50.832;4.080;2022-11-27T03:08:02;10.47;;;3.10;;
20283;SDS011;10301;50.832;4.080;2022-11-27T03:13:20;8.03;;;2.80;;
20283;SDS011;10301;50.832;4.080;2022-11-27T03:16:02;10.90;;;2.70;;
20283;SDS011;10301;50.832;4.080;2022-11-27T03:18:41;8.50;;;2.80;;
20283;SDS011;10301;50.832;4.080;2022-11-27T03:23:50;12.27;;;3.27;;
20283;SDS011;10301;50.832;4.080;2022-11-27T03:26:15;8.80;;;2.37;;
20283;SDS011;10301;50.832;4.080;2022-11-27T03:28:41;7.90;;;2.30;;
20283;SDS011;10301;50.832;4.080;2022-11-27T03:31:10;12.03;;;2.77;;
20283;SDS011;10301;50.832;4.080;2022-11-27T03:33:36;8.87;;;2.83;;
20283;SDS011;10301;50.832;4.080;2022-11-27T03:36:13;8.30;;;2.60;;
20283;SDS011;10301;50.832;4.080;2022-11-27T03:38:40;7.37;;;2.60;;
20283;SDS011;10301;50.832;4.080;2022-11-27T03:41:13;9.77;;;3.07;;
20283;SDS011;10301;50.832;4.080;2022-11-27T03:44:10;11.67;;;3.10;;
20283;SDS011;10301;50.832;4.080;2022-11-27T03:46:54;9.57;;;2.90;;
20283;SDS011;10301;50.832;4.080;2022-11-27T03:57:36;8.53;;;2.80;;
20283;SDS011;10301;50.832;4.080;2022-11-27T04:00:14;9.77;;;3.00;;
20283;SDS011;10301;50.832;4.080;2022-11-27T04:02:42;7.27;;;2.67;;
20283;SDS011;10301;50.832;4.080;2022-11-27T04:05:14;9.77;;;2.77;;
20283;SDS011;10301;50.832;4.080;2022-11-27T04:07:40;7.77;;;2.83;;
20283;SDS011;10301;50.832;4.080;2022-11-27T04:10:07;8.97;;;3.03;;
20283;SDS011;10301;50.832;4.080;2022-11-27T04:12:33;7.00;;;2.37;;
20283;SDS011;10301;50.832;4.080;2022-11-27T04:14:59;9.33;;;2.70;;
20283;SDS011;10301;50.832;4.080;2022-11-27T04:17:25;7.87;;;2.20;;
20283;SDS011;10301;50.832;4.080;2022-11-27T04:19:50;10.67;;;2.73;;
20283;SDS011;10301;50.832;4.080;2022-11-27T04:22:16;12.57;;;3.60;;
20283;SDS011;10301;50.832;4.080;2022-11-27T04:24:42;9.70;;;2.60;;
20283;SDS011;10301;50.832;4.080;2022-11-27T04:27:08;8.57;;;2.77;;
20283;SDS011;10301;50.832;4.080;2022-11-27T04:29:33;10.60;;;2.40;;
20283;SDS011;10301;50.832;4.080;2022-11-27T04:32:00;7.73;;;2.90;;
20283;SDS011;10301;50.832;4.080;2022-11-27T04:34:26;6.47;;;2.90;;
20283;SDS011;10301;50.832;4.080;2022-11-27T04:36:52;9.30;;;2.90;;
20283;SDS011;10301;50.832;4.080;2022-11-27T04:39:17;9.03;;;3.20;;
20283;SDS011;10301;50.832;4.080;2022-11-27T04:41:43;11.03;;;2.63;;
20283;SDS011;10301;50.832;4.080;2022-11-27T04:44:10;8.37;;;2.93;;
20283;SDS011;10301;50.832;4.080;2022-11-27T04:46:36;10.53;;;2.87;;
20283;SDS011;10301;50.832;4.080;2022-11-27T04:49:02;12.10;;;3.50;;
20283;SDS011;10301;50.832;4.080;2022-11-27T04:51:28;12.33;;;3.00;;
20283;SDS011;10301;50.832;4.080;2022-11-27T04:53:53;13.63;;;3.03;;
20283;SDS011;10301;50.832;4.080;2022-11-27T04:56:19;10.80;;;2.87;;
20283;SDS011;10301;50.832;4.080;2022-11-27T04:58:45;10.67;;;3.00;;
20283;SDS011;10301;50.832;4.080;2022-11-27T05:01:10;11.83;;;2.60;;
20283;SDS011;10301;50.832;4.080;2022-11-27T05:03:36;8.40;;;3.10;;
20283;SDS011;10301;50.832;4.080;2022-11-27T05:06:02;10.87;;;3.10;;
20283;SDS011;10301;50.832;4.080;2022-11-27T05:08:28;7.20;;;3.00;;
20283;SDS011;10301;50.832;4.080;2022-11-27T05:11:09;7.00;;;2.73;;
20283;SDS011;10301;50.832;4.080;2022-11-27T05:13:37;9.20;;;2.90;;
20283;SDS011;10301;50.832;4.080;2022-11-27T05:16:03;9.93;;;3.17;;
20283;SDS011;10301;50.832;4.080;2022-11-27T05:18:29;9.77;;;3.43;;
20283;SDS011;10301;50.832;4.080;2022-11-27T05:20:56;11.47;;;3.23;;
20283;SDS011;10301;50.832;4.080;2022-11-27T05:23:27;10.47;;;2.80;;
20283;SDS011;10301;50.832;4.080;2022-11-27T05:25:53;7.47;;;3.23;;
20283;SDS011;10301;50.832;4.080;2022-11-27T05:28:19;8.27;;;3.00;;
20283;SDS011;10301;50.832;4.080;2022-11-27T05:30:45;10.90;;;3.10;;
20283;SDS011;10301;50.832;4.080;2022-11-27T05:33:11;9.90;;;3.03;;
20283;SDS011;10301;50.832;4.080;2022-11-27T05:35:37;11.10;;;3.60;;
20283;SDS011;10301;50.832;4.080;2022-11-27T05:38:03;9.87;;;3.17;;
20283;SDS011;10301;50.832;4.080;2022-11-27T05:40:29;10.37;;;3.30;;
20283;SDS011;10301;50.832;4.080;2022-11-27T05:42:55;11.33;;;3.17;;
20283;SDS011;10301;50.832;4.080;2022-11-27T05:45:20;6.63;;;3.10;;
20283;SDS011;10301;50.832;4.080;2022-11-27T05:47:46;9.27;;;3.10;;
20283;SDS011;10301;50.832;4.080;2022-11-27T05:50:12;10.07;;;3.37;;
20283;SDS011;10301;50.832;4.080;2022-11-27T05:52:37;12.07;;;3.43;;
20283;SDS011;10301;50.832;4.080;2022-11-27T05:55:03;7.10;;;2.90;;
20283;SDS011;10301;50.832;4.080;2022-11-27T05:57:29;7.70;;;2.90;;
20283;SDS011;10301;50.832;4.080;2022-11-27T05:59:55;10.10;;;3.33;;
20283;SDS011;10301;50.832;4.080;2022-11-27T06:02:22;9.93;;;3.30;;
20283;SDS011;10301;50.832;4.080;2022-11-27T06:04:48;9.47;;;3.53;;
20283;SDS011;10301;50.832;4.080;2022-11-27T06:07:13;9.23;;;3.03;;
20283;SDS011;10301;50.832;4.080;2022-11-27T06:09:39;7.73;;;3.13;;
20283;SDS011;10301;50.832;4.080;2022-11-27T06:12:05;10.87;;;4.00;;
20283;SDS011;10301;50.832;4.080;2022-11-27T06:14:31;10.67;;;3.47;;
20283;SDS011;10301;50.832;4.080;2022-11-27T06:16:59;8.77;;;3.17;;
20283;SDS011;10301;50.832;4.080;2022-11-27T06:19:25;7.07;;;3.00;;
20283;SDS011;10301;50.832;4.080;2022-11-27T06:21:51;9.13;;;3.10;;
20283;SDS011;10301;50.832;4.080;2022-11-27T06:24:16;10.17;;;3.60;;
20283;SDS011;10301;50.832;4.080;2022-11-27T06:26:42;10.60;;;3.87;;
20283;SDS011;10301;50.832;4.080;2022-11-27T06:29:08;10.97;;;3.53;;
20283;SDS011;10301;50.832;4.080;2022-11-27T06:31:33;11.67;;;3.63;;
20283;SDS011;10301;50.832;4.080;2022-11-27T06:34:00;10.73;;;3.93;;
20283;SDS011;10301;50.832;4.080;2022-11-27T06:36:27;9.40;;;3.40;;
20283;SDS011;10301;50.832;4.080;2022-11-27T06:38:55;7.87;;;3.80;;
20283;SDS011;10301;50.832;4.080;2022-11-27T06:41:21;12.40;;;3.70;;
20283;SDS011;10301;50.832;4.080;2022-11-27T06:43:48;9.13;;;3.90;;
20283;SDS011;10301;50.832;4.080;2022-11-27T06:46:16;11.87;;;3.60;;
20283;SDS011;10301;50.832;4.080;2022-11-27T06:48:44;9.80;;;3.70;;
20283;SDS011;10301;50.832;4.080;2022-11-27T06:51:12;14.00;;;4.00;;
20283;SDS011;10301;50.832;4.080;2022-11-27T06:53:39;8.03;;;3.43;;
20283;SDS011;10301;50.832;4.080;2022-11-27T06:56:05;10.00;;;3.83;;
20283;SDS011;10301;50.832;4.080;2022-11-27T06:58:33;9.53;;;3.60;;
20283;SDS011;10301;50.832;4.080;2022-11-27T07:01:00;9.73;;;3.70;;
20283;SDS011;10301;50.832;4.080;2022-11-27T07:03:28;11.20;;;3.90;;
20283;SDS011;10301;50.832;4.080;2022-11-27T07:05:53;9.43;;;4.10;;
20283;SDS011;10301;50.832;4.080;2022-11-27T07:08:19;7.60;;;3.30;;
20283;SDS011;10301;50.832;4.080;2022-11-27T07:10:46;8.87;;;3.40;;
20283;SDS011;10301;50.832;4.080;2022-11-27T07:13:12;7.80;;;3.83;;
20283;SDS011;10301;50.832;4.080;2022-11-27T07:15:38;10.30;;;3.70;;
20283;SDS011;10301;50.832;4.080;2022-11-27T07:18:03;10.90;;;4.27;;
20283;SDS011;10301;50.832;4.080;2022-11-27T07:20:29;10.03;;;3.57;;
20283;SDS011;10301;50.832;4.080;2022-11-27T07:22:54;13.63;;;4.17;;
20283;SDS011;10301;50.832;4.080;2022-11-27T07:25:20;10.07;;;3.63;;
20283;SDS011;10301;50.832;4.080;2022-11-27T07:27:46;10.47;;;4.43;;
20283;SDS011;10301;50.832;4.080;2022-11-27T07:30:11;11.97;;;3.93;;
20283;SDS011;10301;50.832;4.080;2022-11-27T07:32:37;8.43;;;3.53;;
20283;SDS011;10301;50.832;4.080;2022-11-27T07:35:03;11.90;;;3.77;;
20283;SDS011;10301;50.832;4.080;2022-11-27T07:37:30;10.13;;;4.10;;
20283;SDS011;10301;50.832;4.080;2022-11-27T07:39:56;11.23;;;4.37;;
20283;SDS011;10301;50.832;4.080;2022-11-27T07:42:22;10.73;;;3.83;;
20283;SDS011;10301;50.832;4.080;2022-11-27T07:44:47;12.23;;;4.90;;
20283;SDS011;10301;50.832;4.080;2022-11-27T07:47:13;11.30;;;4.47;;
20283;SDS011;10301;50.832;4.080;2022-11-27T07:49:38;10.07;;;4.53;;
20283;SDS011;10301;50.832;4.080;2022-11-27T07:52:04;10.00;;;5.30;;
20283;SDS011;10301;50.832;4.080;2022-11-27T07:54:30;10.40;;;5.13;;
20283;SDS011;10301;50.832;4.080;2022-11-27T07:56:56;11.27;;;5.03;;
20283;SDS011;10301;50.832;4.080;2022-11-27T07:59:21;8.50;;;4.37;;
20283;SDS011;10301;50.832;4.080;2022-11-27T08:01:47;9.93;;;4.20;;
20283;SDS011;10301;50.832;4.080;2022-11-27T08:04:13;9.20;;;3.90;;
20283;SDS011;10301;50.832;4.080;2022-11-27T08:06:38;10.63;;;4.83;;
20283;SDS011;10301;50.832;4.080;2022-11-27T08:09:04;11.57;;;4.90;;
20283;SDS011;10301;50.832;4.080;2022-11-27T08:11:30;14.77;;;4.70;;
20283;SDS011;10301;50.832;4.080;2022-11-27T08:13:58;10.63;;;4.20;;
20283;SDS011;10301;50.832;4.080;2022-11-27T08:16:25;11.93;;;4.50;;
20283;SDS011;10301;50.832;4.080;2022-11-27T08:18:51;9.30;;;4.13;;
20283;SDS011;10301;50.832;4.080;2022-11-27T08:21:18;9.20;;;4.23;;
20283;SDS011;10301;50.832;4.080;2022-11-27T08:23:44;11.07;;;4.43;;
20283;SDS011;10301;50.832;4.080;2022-11-27T08:26:10;11.27;;;5.67;;
20283;SDS011;10301;50.832;4.080;2022-11-27T08:28:37;11.93;;;4.40;;
20283;SDS011;10301;50.832;4.080;2022-11-27T08:31:03;10.37;;;5.33;;
20283;SDS011;10301;50.832;4.080;2022-11-27T08:33:31;12.57;;;6.50;;
20283;SDS011;10301;50.832;4.080;2022-11-27T08:35:57;10.93;;;6.07;;
20283;SDS011;10301;50.832;4.080;2022-11-27T08:38:23;8.40;;;4.80;;
20283;SDS011;10301;50.832;4.080;2022-11-27T08:40:55;13.83;;;5.00;;
20283;SDS011;10301;50.832;4.080;2022-11-27T08:43:21;12.73;;;5.20;;
20283;SDS011;10301;50.832;4.080;2022-11-27T08:45:47;12.13;;;4.77;;
20283;SDS011;10301;50.832;4.080;2022-11-27T08:48:13;10.30;;;4.93;;
20283;SDS011;10301;50.832;4.080;2022-11-27T08:50:39;10.53;;;4.50;;
20283;SDS011;10301;50.832;4.080;2022-11-27T08:53:05;13.20;;;4.40;;
20283;SDS011;10301;50.832;4.080;2022-11-27T08:55:31;10.43;;;4.10;;
20283;SDS011;10301;50.832;4.080;2022-11-27T08:57:56;7.87;;;3.73;;
20283;SDS011;10301;50.832;4.080;2022-11-27T09:00:22;10.30;;;4.43;;
20283;SDS011;10301;50.832;4.080;2022-11-27T09:02:47;10.17;;;3.73;;
20283;SDS011;10301;50.832;4.080;2022-11-27T09:05:13;9.17;;;4.57;;
20283;SDS011;10301;50.832;4.080;2022-11-27T09:07:39;9.53;;;4.37;;
20283;SDS011;10301;50.832;4.080;2022-11-27T09:10:08;10.77;;;4.63;;
20283;SDS011;10301;50.832;4.080;2022-11-27T09:12:33;10.27;;;4.33;;
20283;SDS011;10301;50.832;4.080;2022-11-27T09:14:59;10.17;;;4.63;;
20283;SDS011;10301;50.832;4.080;2022-11-27T09:17:25;10.20;;;4.67;;
20283;SDS011;10301;50.832;4.080;2022-11-27T09:19:50;8.50;;;4.67;;
20283;SDS011;10301;50.832;4.080;2022-11-27T09:22:16;8.20;;;4.13;;
20283;SDS011;10301;50.832;4.080;2022-11-27T09:24:42;10.17;;;4.23;;
20283;SDS011;10301;50.832;4.080;2022-11-27T09:27:08;9.17;;;3.97;;
20283;SDS011;10301;50.832;4.080;2022-11-27T09:29:34;9.67;;;4.93;;
20283;SDS011;10301;50.832;4.080;2022-11-27T09:31:59;10.47;;;4.33;;
20283;SDS011;10301;50.832;4.080;2022-11-27T09:34:25;12.77;;;5.63;;
20283;SDS011;10301;50.832;4.080;2022-11-27T09:36:51;10.93;;;4.83;;
20283;SDS011;10301;50.832;4.080;2022-11-27T09:39:16;8.87;;;4.67;;
20283;SDS011;10301;50.832;4.080;2022-11-27T09:41:51;8.40;;;4.20;;
20283;SDS011;10301;50.832;4.080;2022-11-27T09:47:03;10.93;;;5.10;;
20283;SDS011;10301;50.832;4.080;2022-11-27T09:50:11;13.33;;;5.20;;
20283;SDS011;10301;50.832;4.080;2022-11-27T09:52:40;11.90;;;5.33;;
20283;SDS011;10301;50.832;4.080;2022-11-27T09:55:14;11.30;;;4.90;;
20283;SDS011;10301;50.832;4.080;2022-11-27T10:00:44;14.63;;;6.10;;
20283;SDS011;10301;50.832;4.080;2022-11-27T10:03:14;11.60;;;6.40;;
20283;SDS011;10301;50.832;4.080;2022-11-27T10:08:20;10.80;;;5.20;;
20283;SDS011;10301;50.832;4.080;2022-11-27T10:18:36;13.07;;;5.17;;
20283;SDS011;10301;50.832;4.080;2022-11-27T10:24:22;10.57;;;5.23;;
20283;SDS011;10301;50.832;4.080;2022-11-27T10:26:49;10.20;;;4.60;;
20283;SDS011;10301;50.832;4.080;2022-11-27T10:31:54;13.40;;;5.30;;
20283;SDS011;10301;50.832;4.080;2022-11-27T10:34:33;14.07;;;5.00;;
20283;SDS011;10301;50.832;4.080;2022-11-27T10:37:17;11.67;;;5.00;;
20283;SDS011;10301;50.832;4.080;2022-11-27T10:42:44;14.10;;;5.20;;
20283;SDS011;10301;50.832;4.080;2022-11-27T10:45:37;12.30;;;4.90;;
20283;SDS011;10301;50.832;4.080;2022-11-27T10:48:14;13.90;;;5.57;;
20283;SDS011;10301;50.832;4.080;2022-11-27T10:50:40;8.60;;;4.67;;
20283;SDS011;10301;50.832;4.080;2022-11-27T10:53:10;10.00;;;5.10;;
20283;SDS011;10301;50.832;4.080;2022-11-27T10:56:01;10.77;;;5.00;;
20283;SDS011;10301;50.832;4.080;2022-11-27T11:01:00;11.00;;;5.37;;
20283;SDS011;10301;50.832;4.080;2022-11-27T11:03:31;12.60;;;5.30;;
20283;SDS011;10301;50.832;4.080;2022-11-27T11:05:58;11.93;;;5.47;;
20283;SDS011;10301;50.832;4.080;2022-11-27T11:08:27;12.13;;;5.63;;
20283;SDS011;10301;50.832;4.080;2022-11-27T11:11:00;10.13;;;4.90;;
20283;SDS011;10301;50.832;4.080;2022-11-27T11:13:32;12.83;;;5.60;;
20283;SDS011;10301;50.832;4.080;2022-11-27T11:18:46;12.77;;;5.37;;
20283;SDS011;10301;50.832;4.080;2022-11-27T11:21:18;11.27;;;4.83;;
20283;SDS011;10301;50.832;4.080;2022-11-27T11:23:52;10.90;;;4.70;;
20283;SDS011;10301;50.832;4.080;2022-11-27T11:26:25;13.67;;;5.47;;
20283;SDS011;10301;50.832;4.080;2022-11-27T11:28:54;11.80;;;5.73;;
20283;SDS011;10301;50.832;4.080;2022-11-27T11:31:27;15.13;;;6.90;;
20283;SDS011;10301;50.832;4.080;2022-11-27T11:34:01;13.90;;;6.37;;
20283;SDS011;10301;50.832;4.080;2022-11-27T11:36:30;10.07;;;5.40;;
20283;SDS011;10301;50.832;4.080;2022-11-27T11:38:56;10.57;;;5.10;;
20283;SDS011;10301;50.832;4.080;2022-11-27T11:41:22;12.27;;;6.13;;
20283;SDS011;10301;50.832;4.080;2022-11-27T11:43:52;8.70;;;5.23;;
20283;SDS011;10301;50.832;4.080;2022-11-27T11:46:30;9.77;;;5.20;;
20283;SDS011;10301;50.832;4.080;2022-11-27T12:00:17;10.10;;;5.07;;
20283;SDS011;10301;50.832;4.080;2022-11-27T12:02:52;10.03;;;4.80;;
20283;SDS011;10301;50.832;4.080;2022-11-27T12:08:43;11.30;;;5.10;;
20283;SDS011;10301;50.832;4.080;2022-11-27T12:16:58;9.80;;;4.27;;
20283;SDS011;10301;50.832;4.080;2022-11-27T12:30:56;9.03;;;4.30;;
20283;SDS011;10301;50.832;4.080;2022-11-27T12:33:48;11.20;;;4.90;;
20283;SDS011;10301;50.832;4.080;2022-11-27T12:39:10;10.40;;;4.43;;
20283;SDS011;10301;50.832;4.080;2022-11-27T12:44:14;9.73;;;4.47;;
20283;SDS011;10301;50.832;4.080;2022-11-27T12:55:03;11.47;;;4.50;;
20283;SDS011;10301;50.832;4.080;2022-11-27T13:00:15;15.60;;;4.43;;
20283;SDS011;10301;50.832;4.080;2022-11-27T13:05:37;8.93;;;4.43;;
20283;SDS011;10301;50.832;4.080;2022-11-27T13:08:05;9.87;;;4.40;;
20283;SDS011;10301;50.832;4.080;2022-11-27T13:10:39;11.77;;;6.30;;
20283;SDS011;10301;50.832;4.080;2022-11-27T13:13:43;11.87;;;5.30;;
20283;SDS011;10301;50.832;4.080;2022-11-27T13:19:34;8.33;;;4.30;;
20283;SDS011;10301;50.832;4.080;2022-11-27T13:21:59;9.60;;;4.37;;
20283;SDS011;10301;50.832;4.080;2022-11-27T13:24:28;9.67;;;4.50;;
20283;SDS011;10301;50.832;4.080;2022-11-27T13:32:00;9.17;;;4.40;;
20283;SDS011;10301;50.832;4.080;2022-11-27T13:34:28;10.27;;;3.97;;
20283;SDS011;10301;50.832;4.080;2022-11-27T13:37:00;9.23;;;4.07;;
20283;SDS011;10301;50.832;4.080;2022-11-27T13:39:36;7.17;;;3.97;;
20283;SDS011;10301;50.832;4.080;2022-11-27T13:42:05;8.93;;;4.17;;
20283;SDS011;10301;50.832;4.080;2022-11-27T13:44:35;7.23;;;3.70;;
20283;SDS011;10301;50.832;4.080;2022-11-27T13:47:07;8.40;;;4.40;;
20283;SDS011;10301;50.832;4.080;2022-11-27T13:49:36;7.77;;;3.90;;
20283;SDS011;10301;50.832;4.080;2022-11-27T13:52:07;7.60;;;4.50;;
20283;SDS011;10301;50.832;4.080;2022-11-27T13:54:36;9.90;;;4.57;;
20283;SDS011;10301;50.832;4.080;2022-11-27T13:57:14;8.83;;;3.77;;
20283;SDS011;10301;50.832;4.080;2022-11-27T13:59:52;8.30;;;4.00;;
20283;SDS011;10301;50.832;4.080;2022-11-27T14:02:21;9.43;;;4.20;;
20283;SDS011;10301;50.832;4.080;2022-11-27T14:04:48;9.00;;;4.00;;
20283;SDS011;10301;50.832;4.080;2022-11-27T14:07:15;7.57;;;3.63;;
20283;SDS011;10301;50.832;4.080;2022-11-27T14:09:43;6.83;;;3.53;;
20283;SDS011;10301;50.832;4.080;2022-11-27T14:12:16;9.17;;;5.30;;
20283;SDS011;10301;50.832;4.080;2022-11-27T14:14:59;8.87;;;4.07;;
20283;SDS011;10301;50.832;4.080;2022-11-27T14:27:43;7.20;;;3.80;;
20283;SDS011;10301;50.832;4.080;2022-11-27T14:30:19;9.50;;;3.47;;
20283;SDS011;10301;50.832;4.080;2022-11-27T14:33:03;10.70;;;4.43;;
20283;SDS011;10301;50.832;4.080;2022-11-27T14:35:29;8.77;;;4.27;;
20283;SDS011;10301;50.832;4.080;2022-11-27T14:38:09;8.10;;;3.97;;
20283;SDS011;10301;50.832;4.080;2022-11-27T14:40:35;10.03;;;5.07;;
20283;SDS011;10301;50.832;4.080;2022-11-27T14:43:09;9.20;;;4.50;;
20283;SDS011;10301;50.832;4.080;2022-11-27T14:45:41;9.23;;;4.83;;
20283;SDS011;10301;50.832;4.080;2022-11-27T14:48:22;11.33;;;5.10;;
20283;SDS011;10301;50.832;4.080;2022-11-27T14:50:53;8.47;;;4.10;;
20283;SDS011;10301;50.832;4.080;2022-11-27T14:53:20;7.60;;;4.53;;
20283;SDS011;10301;50.832;4.080;2022-11-27T14:55:48;8.07;;;4.90;;
20283;SDS011;10301;50.832;4.080;2022-11-27T14:58:21;10.97;;;5.33;;
20283;SDS011;10301;50.832;4.080;2022-11-27T15:00:56;7.07;;;3.67;;
20283;SDS011;10301;50.832;4.080;2022-11-27T15:03:24;7.70;;;3.50;;
20283;SDS011;10301;50.832;4.080;2022-11-27T15:05:57;9.90;;;3.40;;
20283;SDS011;10301;50.832;4.080;2022-11-27T15:08:28;9.23;;;4.33;;
20283;SDS011;10301;50.832;4.080;2022-11-27T15:10:58;7.73;;;3.40;;
20283;SDS011;10301;50.832;4.080;2022-11-27T15:13:26;8.87;;;4.53;;
20283;SDS011;10301;50.832;4.080;2022-11-27T15:18:47;8.07;;;3.53;;
20283;SDS011;10301;50.832;4.080;2022-11-27T15:21:17;8.40;;;3.30;;
20283;SDS011;10301;50.832;4.080;2022-11-27T15:23:45;6.87;;;3.20;;
20283;SDS011;10301;50.832;4.080;2022-11-27T15:26:22;7.10;;;3.90;;
20283;SDS011;10301;50.832;4.080;2022-11-27T15:28:56;5.43;;;3.00;;
20283;SDS011;10301;50.832;4.080;2022-11-27T15:34:04;7.97;;;3.13;;
20283;SDS011;10301;50.832;4.080;2022-11-27T15:36:33;10.13;;;3.93;;
20283;SDS011;10301;50.832;4.080;2022-11-27T15:39:24;10.40;;;3.23;;
20283;SDS011;10301;50.832;4.080;2022-11-27T15:42:00;6.83;;;3.33;;
20283;SDS011;10301;50.832;4.080;2022-11-27T15:44:28;7.40;;;3.43;;
20283;SDS011;10301;50.832;4.080;2022-11-27T15:46:56;7.53;;;3.60;;
20283;SDS011;10301;50.832;4.080;2022-11-27T15:49:23;10.13;;;3.60;;
20283;SDS011;10301;50.832;4.080;2022-11-27T15:51:49;9.40;;;4.20;;
20283;SDS011;10301;50.832;4.080;2022-11-27T15:54:15;7.67;;;3.80;;
20283;SDS011;10301;50.832;4.080;2022-11-27T15:56:42;8.17;;;3.30;;
20283;SDS011;10301;50.832;4.080;2022-11-27T15:59:08;8.93;;;4.27;;
20283;SDS011;10301;50.832;4.080;2022-11-27T16:01:34;8.93;;;4.27;;
20283;SDS011;10301;50.832;4.080;2022-11-27T16:04:01;6.87;;;3.47;;
20283;SDS011;10301;50.832;4.080;2022-11-27T16:06:27;8.60;;;3.57;;
20283;SDS011;10301;50.832;4.080;2022-11-27T16:08:53;7.53;;;3.40;;
20283;SDS011;10301;50.832;4.080;2022-11-27T16:11:23;8.57;;;3.50;;
20283;SDS011;10301;50.832;4.080;2022-11-27T16:13:49;8.07;;;4.00;;
20283;SDS011;10301;50.832;4.080;2022-11-27T16:16:15;7.27;;;3.67;;
20283;SDS011;10301;50.832;4.080;2022-11-27T16:18:41;7.97;;;4.17;;
20283;SDS011;10301;50.832;4.080;2022-11-27T16:21:09;8.50;;;3.70;;
20283;SDS011;10301;50.832;4.080;2022-11-27T16:23:36;8.43;;;4.17;;
20283;SDS011;10301;50.832;4.080;2022-11-27T16:26:03;8.43;;;3.60;;
20283;SDS011;10301;50.832;4.080;2022-11-27T16:28:30;8.27;;;3.40;;
20283;SDS011;10301;50.832;4.080;2022-11-27T16:30:58;9.17;;;3.70;;
20283;SDS011;10301;50.832;4.080;2022-11-27T16:33:25;8.80;;;3.10;;
20283;SDS011;10301;50.832;4.080;2022-11-27T16:35:54;7.47;;;3.27;;
20283;SDS011;10301;50.832;4.080;2022-11-27T16:38:20;7.87;;;3.53;;
20283;SDS011;10301;50.832;4.080;2022-11-27T16:40:47;8.00;;;3.63;;
20283;SDS011;10301;50.832;4.080;2022-11-27T16:43:13;7.37;;;3.43;;
20283;SDS011;10301;50.832;4.080;2022-11-27T16:45:39;7.47;;;3.50;;
20283;SDS011;10301;50.832;4.080;2022-11-27T16:48:05;5.97;;;3.37;;
20283;SDS011;10301;50.832;4.080;2022-11-27T16:50:30;7.40;;;3.80;;
20283;SDS011;10301;50.832;4.080;2022-11-27T16:52:57;9.50;;;3.77;;
20283;SDS011;10301;50.832;4.080;2022-11-27T16:55:23;8.23;;;3.77;;
20283;SDS011;10301;50.832;4.080;2022-11-27T16:57:49;8.83;;;4.67;;
20283;SDS011;10301;50.832;4.080;2022-11-27T17:00:15;10.50;;;3.93;;
20283;SDS011;10301;50.832;4.080;2022-11-27T17:02:40;9.07;;;3.77;;
20283;SDS011;10301;50.832;4.080;2022-11-27T17:05:06;8.17;;;4.33;;
20283;SDS011;10301;50.832;4.080;2022-11-27T17:07:32;8.87;;;4.37;;
20283;SDS011;10301;50.832;4.080;2022-11-27T17:09:58;7.20;;;4.37;;
20283;SDS011;10301;50.832;4.080;2022-11-27T17:12:24;11.20;;;7.67;;
20283;SDS011;10301;50.832;4.080;2022-11-27T17:14:50;13.17;;;7.40;;
20283;SDS011;10301;50.832;4.080;2022-11-27T17:17:16;19.70;;;13.23;;